sensor_id;sensor_type;location;lat;lon;timestamp;P1;durP1;ratioP1;P2;durP2;ratioP2
16115;SDS011;8162;47.104;15.432;2022-07-06T00:01:23;4.77;;;3.80;;
16115;SDS011;8162;47.104;15.432;2022-07-06T00:03:49;6.40;;;4.50;;
16115;SDS011;8162;47.104;15.432;2022-07-06T00:06:15;7.33;;;4.40;;
16115;SDS011;8162;47.104;15.432;2022-07-06T00:08:42;4.50;;;4.10;;
16115;SDS011;8162;47.104;15.432;2022-07-06T00:11:09;6.37;;;4.30;;
16115;SDS011;8162;47.104;15.432;2022-07-06T00:13:35;4.30;;;3.83;;
16115;SDS011;8162;47.104;15.432;2022-07-06T00:16:01;4.13;;;3.70;;
16115;SDS011;8162;47.104;15.432;2022-07-06T00:18:27;4.40;;;4.00;;
16115;SDS011;8162;47.104;15.432;2022-07-06T00:20:52;7.27;;;4.17;;
16115;SDS011;8162;47.104;15.432;2022-07-06T00:23:18;7.63;;;4.50;;
16115;SDS011;8162;47.104;15.432;2022-07-06T00:25:44;5.43;;;4.47;;
16115;SDS011;8162;47.104;15.432;2022-07-06T00:28:10;4.53;;;4.13;;
16115;SDS011;8162;47.104;15.432;2022-07-06T00:30:36;4.17;;;3.87;;
16115;SDS011;8162;47.104;15.432;2022-07-06T00:33:01;5.33;;;4.40;;
16115;SDS011;8162;47.104;15.432;2022-07-06T00:35:27;6.87;;;4.27;;
16115;SDS011;8162;47.104;15.432;2022-07-06T00:37:53;4.63;;;4.23;;
16115;SDS011;8162;47.104;15.432;2022-07-06T00:40:19;6.27;;;4.67;;
16115;SDS011;8162;47.104;15.432;2022-07-06T00:42:46;8.37;;;5.07;;
16115;SDS011;8162;47.104;15.432;2022-07-06T00:45:13;5.37;;;4.87;;
16115;SDS011;8162;47.104;15.432;2022-07-06T00:47:40;7.40;;;5.20;;
16115;SDS011;8162;47.104;15.432;2022-07-06T00:50:06;6.20;;;4.87;;
16115;SDS011;8162;47.104;15.432;2022-07-06T00:52:40;6.10;;;4.40;;
16115;SDS011;8162;47.104;15.432;2022-07-06T00:55:07;8.00;;;4.57;;
16115;SDS011;8162;47.104;15.432;2022-07-06T00:57:34;8.50;;;4.33;;
16115;SDS011;8162;47.104;15.432;2022-07-06T01:00:00;4.73;;;4.33;;
16115;SDS011;8162;47.104;15.432;2022-07-06T01:02:30;8.47;;;4.70;;
16115;SDS011;8162;47.104;15.432;2022-07-06T01:04:57;8.00;;;4.60;;
16115;SDS011;8162;47.104;15.432;2022-07-06T01:07:23;4.57;;;4.17;;
16115;SDS011;8162;47.104;15.432;2022-07-06T01:09:49;5.70;;;4.37;;
16115;SDS011;8162;47.104;15.432;2022-07-06T01:12:14;8.37;;;4.90;;
16115;SDS011;8162;47.104;15.432;2022-07-06T01:14:40;8.50;;;5.53;;
16115;SDS011;8162;47.104;15.432;2022-07-06T01:17:07;5.87;;;5.07;;
16115;SDS011;8162;47.104;15.432;2022-07-06T01:19:33;6.33;;;5.03;;
16115;SDS011;8162;47.104;15.432;2022-07-06T01:21:58;5.77;;;4.90;;
16115;SDS011;8162;47.104;15.432;2022-07-06T01:24:24;5.30;;;4.80;;
16115;SDS011;8162;47.104;15.432;2022-07-06T01:26:50;5.10;;;4.70;;
16115;SDS011;8162;47.104;15.432;2022-07-06T01:29:16;7.10;;;4.00;;
16115;SDS011;8162;47.104;15.432;2022-07-06T01:31:46;5.60;;;4.57;;
16115;SDS011;8162;47.104;15.432;2022-07-06T01:34:13;5.13;;;4.60;;
16115;SDS011;8162;47.104;15.432;2022-07-06T01:36:40;5.57;;;4.80;;
16115;SDS011;8162;47.104;15.432;2022-07-06T01:39:07;4.97;;;4.57;;
16115;SDS011;8162;47.104;15.432;2022-07-06T01:41:33;4.73;;;4.37;;
16115;SDS011;8162;47.104;15.432;2022-07-06T01:43:59;7.10;;;5.03;;
16115;SDS011;8162;47.104;15.432;2022-07-06T01:46:25;4.80;;;4.40;;
16115;SDS011;8162;47.104;15.432;2022-07-06T01:48:51;5.73;;;5.00;;
16115;SDS011;8162;47.104;15.432;2022-07-06T01:51:16;4.90;;;4.50;;
16115;SDS011;8162;47.104;15.432;2022-07-06T01:53:42;10.30;;;4.40;;
16115;SDS011;8162;47.104;15.432;2022-07-06T01:56:08;5.37;;;4.87;;
16115;SDS011;8162;47.104;15.432;2022-07-06T01:58:34;6.90;;;5.00;;
16115;SDS011;8162;47.104;15.432;2022-07-06T02:01:00;6.33;;;5.30;;
16115;SDS011;8162;47.104;15.432;2022-07-06T02:03:31;5.60;;;5.10;;
16115;SDS011;8162;47.104;15.432;2022-07-06T02:05:56;6.73;;;4.47;;
16115;SDS011;8162;47.104;15.432;2022-07-06T02:08:22;8.03;;;4.80;;
16115;SDS011;8162;47.104;15.432;2022-07-06T02:10:48;4.93;;;4.43;;
16115;SDS011;8162;47.104;15.432;2022-07-06T02:13:13;5.20;;;4.30;;
16115;SDS011;8162;47.104;15.432;2022-07-06T02:15:39;6.60;;;5.17;;
16115;SDS011;8162;47.104;15.432;2022-07-06T02:18:05;6.00;;;4.80;;
16115;SDS011;8162;47.104;15.432;2022-07-06T02:20:30;5.67;;;4.67;;
16115;SDS011;8162;47.104;15.432;2022-07-06T02:22:56;10.83;;;5.87;;
16115;SDS011;8162;47.104;15.432;2022-07-06T02:25:22;5.67;;;5.17;;
16115;SDS011;8162;47.104;15.432;2022-07-06T02:27:47;6.97;;;4.90;;
16115;SDS011;8162;47.104;15.432;2022-07-06T02:30:13;5.60;;;5.00;;
16115;SDS011;8162;47.104;15.432;2022-07-06T02:32:39;6.57;;;4.97;;
16115;SDS011;8162;47.104;15.432;2022-07-06T02:35:05;8.43;;;5.00;;
16115;SDS011;8162;47.104;15.432;2022-07-06T02:37:31;5.33;;;4.83;;
16115;SDS011;8162;47.104;15.432;2022-07-06T02:39:56;5.33;;;4.93;;
16115;SDS011;8162;47.104;15.432;2022-07-06T02:42:22;5.37;;;4.90;;
16115;SDS011;8162;47.104;15.432;2022-07-06T02:44:47;5.27;;;4.77;;
16115;SDS011;8162;47.104;15.432;2022-07-06T02:47:13;5.40;;;4.90;;
16115;SDS011;8162;47.104;15.432;2022-07-06T02:49:39;5.97;;;5.03;;
16115;SDS011;8162;47.104;15.432;2022-07-06T02:52:04;5.20;;;4.80;;
16115;SDS011;8162;47.104;15.432;2022-07-06T02:54:30;5.50;;;5.00;;
16115;SDS011;8162;47.104;15.432;2022-07-06T02:56:56;5.67;;;5.17;;
16115;SDS011;8162;47.104;15.432;2022-07-06T02:59:21;6.20;;;4.50;;
16115;SDS011;8162;47.104;15.432;2022-07-06T03:01:47;7.10;;;5.63;;
16115;SDS011;8162;47.104;15.432;2022-07-06T03:04:13;5.70;;;5.20;;
16115;SDS011;8162;47.104;15.432;2022-07-06T03:06:38;6.07;;;5.17;;
16115;SDS011;8162;47.104;15.432;2022-07-06T03:09:04;5.93;;;4.87;;
16115;SDS011;8162;47.104;15.432;2022-07-06T03:11:30;5.70;;;4.97;;
16115;SDS011;8162;47.104;15.432;2022-07-06T03:13:55;7.03;;;5.63;;
16115;SDS011;8162;47.104;15.432;2022-07-06T03:16:21;6.97;;;5.33;;
16115;SDS011;8162;47.104;15.432;2022-07-06T03:18:47;6.57;;;5.43;;
16115;SDS011;8162;47.104;15.432;2022-07-06T03:21:12;6.17;;;5.23;;
16115;SDS011;8162;47.104;15.432;2022-07-06T03:23:38;11.97;;;5.20;;
16115;SDS011;8162;47.104;15.432;2022-07-06T03:26:03;5.87;;;4.77;;
16115;SDS011;8162;47.104;15.432;2022-07-06T03:28:29;8.20;;;5.73;;
16115;SDS011;8162;47.104;15.432;2022-07-06T03:30:55;7.33;;;5.43;;
16115;SDS011;8162;47.104;15.432;2022-07-06T03:33:20;6.97;;;5.40;;
16115;SDS011;8162;47.104;15.432;2022-07-06T03:35:46;5.33;;;4.93;;
16115;SDS011;8162;47.104;15.432;2022-07-06T03:38:12;6.23;;;5.63;;
16115;SDS011;8162;47.104;15.432;2022-07-06T03:40:37;5.97;;;5.43;;
16115;SDS011;8162;47.104;15.432;2022-07-06T03:43:03;9.10;;;5.30;;
16115;SDS011;8162;47.104;15.432;2022-07-06T03:45:29;4.87;;;4.47;;
16115;SDS011;8162;47.104;15.432;2022-07-06T03:47:55;5.13;;;4.73;;
16115;SDS011;8162;47.104;15.432;2022-07-06T03:50:21;6.83;;;5.90;;
16115;SDS011;8162;47.104;15.432;2022-07-06T03:52:47;6.27;;;4.97;;
16115;SDS011;8162;47.104;15.432;2022-07-06T03:55:12;6.27;;;5.23;;
16115;SDS011;8162;47.104;15.432;2022-07-06T03:57:38;7.47;;;5.50;;
16115;SDS011;8162;47.104;15.432;2022-07-06T04:00:06;7.40;;;5.57;;
16115;SDS011;8162;47.104;15.432;2022-07-06T04:02:33;5.67;;;5.17;;
16115;SDS011;8162;47.104;15.432;2022-07-06T04:04:58;6.10;;;5.60;;
16115;SDS011;8162;47.104;15.432;2022-07-06T04:07:24;6.30;;;5.60;;
16115;SDS011;8162;47.104;15.432;2022-07-06T04:09:50;8.73;;;5.13;;
16115;SDS011;8162;47.104;15.432;2022-07-06T04:12:16;6.03;;;5.17;;
16115;SDS011;8162;47.104;15.432;2022-07-06T04:14:42;5.53;;;5.03;;
16115;SDS011;8162;47.104;15.432;2022-07-06T04:17:07;7.53;;;5.47;;
16115;SDS011;8162;47.104;15.432;2022-07-06T04:19:51;5.97;;;5.37;;
16115;SDS011;8162;47.104;15.432;2022-07-06T04:22:17;4.83;;;4.43;;
16115;SDS011;8162;47.104;15.432;2022-07-06T04:24:43;5.90;;;5.30;;
16115;SDS011;8162;47.104;15.432;2022-07-06T04:27:08;8.60;;;4.93;;
16115;SDS011;8162;47.104;15.432;2022-07-06T04:29:34;7.87;;;5.77;;
16115;SDS011;8162;47.104;15.432;2022-07-06T04:32:00;5.57;;;5.07;;
16115;SDS011;8162;47.104;15.432;2022-07-06T04:34:26;5.07;;;4.57;;
16115;SDS011;8162;47.104;15.432;2022-07-06T04:36:51;5.27;;;4.77;;
16115;SDS011;8162;47.104;15.432;2022-07-06T04:39:17;6.23;;;4.93;;
16115;SDS011;8162;47.104;15.432;2022-07-06T04:41:43;6.43;;;5.10;;
16115;SDS011;8162;47.104;15.432;2022-07-06T04:44:09;6.17;;;5.43;;
16115;SDS011;8162;47.104;15.432;2022-07-06T04:46:34;6.10;;;5.20;;
16115;SDS011;8162;47.104;15.432;2022-07-06T04:49:00;7.93;;;6.07;;
16115;SDS011;8162;47.104;15.432;2022-07-06T04:51:25;6.97;;;5.10;;
16115;SDS011;8162;47.104;15.432;2022-07-06T04:53:51;5.63;;;5.07;;
16115;SDS011;8162;47.104;15.432;2022-07-06T04:56:17;7.07;;;5.47;;
16115;SDS011;8162;47.104;15.432;2022-07-06T04:58:42;5.47;;;4.97;;
16115;SDS011;8162;47.104;15.432;2022-07-06T05:01:08;7.20;;;5.67;;
16115;SDS011;8162;47.104;15.432;2022-07-06T05:03:34;7.63;;;5.63;;
16115;SDS011;8162;47.104;15.432;2022-07-06T05:06:05;6.43;;;5.00;;
16115;SDS011;8162;47.104;15.432;2022-07-06T05:08:31;6.43;;;4.60;;
16115;SDS011;8162;47.104;15.432;2022-07-06T05:10:57;8.47;;;5.60;;
16115;SDS011;8162;47.104;15.432;2022-07-06T05:13:23;5.47;;;5.07;;
16115;SDS011;8162;47.104;15.432;2022-07-06T05:15:49;8.80;;;5.83;;
16115;SDS011;8162;47.104;15.432;2022-07-06T05:18:14;6.63;;;5.40;;
16115;SDS011;8162;47.104;15.432;2022-07-06T05:20:40;7.90;;;5.87;;
16115;SDS011;8162;47.104;15.432;2022-07-06T05:23:06;6.33;;;5.40;;
16115;SDS011;8162;47.104;15.432;2022-07-06T05:25:31;6.27;;;5.20;;
16115;SDS011;8162;47.104;15.432;2022-07-06T05:27:58;8.87;;;5.33;;
16115;SDS011;8162;47.104;15.432;2022-07-06T05:30:24;5.40;;;4.90;;
16115;SDS011;8162;47.104;15.432;2022-07-06T05:32:51;5.63;;;5.13;;
16115;SDS011;8162;47.104;15.432;2022-07-06T05:35:16;6.63;;;5.20;;
16115;SDS011;8162;47.104;15.432;2022-07-06T05:37:42;5.50;;;5.00;;
16115;SDS011;8162;47.104;15.432;2022-07-06T05:40:10;5.67;;;5.17;;
16115;SDS011;8162;47.104;15.432;2022-07-06T05:42:36;6.60;;;4.70;;
16115;SDS011;8162;47.104;15.432;2022-07-06T05:45:01;5.70;;;4.40;;
16115;SDS011;8162;47.104;15.432;2022-07-06T05:47:29;6.27;;;4.87;;
16115;SDS011;8162;47.104;15.432;2022-07-06T05:50:13;7.77;;;5.23;;
16115;SDS011;8162;47.104;15.432;2022-07-06T05:52:40;8.53;;;5.60;;
16115;SDS011;8162;47.104;15.432;2022-07-06T05:55:08;5.97;;;4.97;;
16115;SDS011;8162;47.104;15.432;2022-07-06T05:57:37;6.87;;;4.80;;
16115;SDS011;8162;47.104;15.432;2022-07-06T06:00:05;5.60;;;4.83;;
16115;SDS011;8162;47.104;15.432;2022-07-06T06:02:38;5.70;;;4.67;;
16115;SDS011;8162;47.104;15.432;2022-07-06T06:05:06;6.53;;;4.53;;
16115;SDS011;8162;47.104;15.432;2022-07-06T06:07:33;5.60;;;5.07;;
16115;SDS011;8162;47.104;15.432;2022-07-06T06:10:01;5.13;;;4.63;;
16115;SDS011;8162;47.104;15.432;2022-07-06T06:12:30;5.93;;;4.47;;
16115;SDS011;8162;47.104;15.432;2022-07-06T06:14:56;5.63;;;5.13;;
16115;SDS011;8162;47.104;15.432;2022-07-06T06:17:22;6.67;;;5.17;;
16115;SDS011;8162;47.104;15.432;2022-07-06T06:19:47;7.00;;;4.50;;
16115;SDS011;8162;47.104;15.432;2022-07-06T06:22:13;7.10;;;5.30;;
16115;SDS011;8162;47.104;15.432;2022-07-06T06:24:39;5.67;;;5.17;;
16115;SDS011;8162;47.104;15.432;2022-07-06T06:27:05;7.00;;;5.63;;
16115;SDS011;8162;47.104;15.432;2022-07-06T06:29:31;9.27;;;6.93;;
16115;SDS011;8162;47.104;15.432;2022-07-06T06:31:57;7.53;;;6.63;;
16115;SDS011;8162;47.104;15.432;2022-07-06T06:34:23;7.23;;;5.43;;
16115;SDS011;8162;47.104;15.432;2022-07-06T06:36:49;6.63;;;5.00;;
16115;SDS011;8162;47.104;15.432;2022-07-06T06:39:14;7.13;;;5.70;;
16115;SDS011;8162;47.104;15.432;2022-07-06T06:41:40;8.53;;;5.47;;
16115;SDS011;8162;47.104;15.432;2022-07-06T06:44:06;5.77;;;5.00;;
16115;SDS011;8162;47.104;15.432;2022-07-06T06:46:31;5.37;;;4.87;;
16115;SDS011;8162;47.104;15.432;2022-07-06T06:48:57;5.53;;;4.97;;
16115;SDS011;8162;47.104;15.432;2022-07-06T06:51:22;5.57;;;4.50;;
16115;SDS011;8162;47.104;15.432;2022-07-06T06:53:48;5.20;;;4.60;;
16115;SDS011;8162;47.104;15.432;2022-07-06T06:56:14;5.93;;;4.60;;
16115;SDS011;8162;47.104;15.432;2022-07-06T06:58:39;6.53;;;5.27;;
16115;SDS011;8162;47.104;15.432;2022-07-06T07:01:05;6.10;;;4.80;;
16115;SDS011;8162;47.104;15.432;2022-07-06T07:03:31;4.83;;;4.43;;
16115;SDS011;8162;47.104;15.432;2022-07-06T07:05:56;7.13;;;5.07;;
16115;SDS011;8162;47.104;15.432;2022-07-06T07:08:22;5.23;;;4.67;;
16115;SDS011;8162;47.104;15.432;2022-07-06T07:10:48;8.43;;;4.30;;
16115;SDS011;8162;47.104;15.432;2022-07-06T07:13:14;5.57;;;4.70;;
16115;SDS011;8162;47.104;15.432;2022-07-06T07:15:40;5.60;;;4.63;;
16115;SDS011;8162;47.104;15.432;2022-07-06T07:18:05;4.27;;;3.07;;
16115;SDS011;8162;47.104;15.432;2022-07-06T07:20:31;5.83;;;3.73;;
16115;SDS011;8162;47.104;15.432;2022-07-06T07:22:58;6.17;;;3.70;;
16115;SDS011;8162;47.104;15.432;2022-07-06T07:25:25;3.63;;;3.33;;
16115;SDS011;8162;47.104;15.432;2022-07-06T07:27:51;4.70;;;4.00;;
16115;SDS011;8162;47.104;15.432;2022-07-06T07:30:16;4.13;;;3.67;;
16115;SDS011;8162;47.104;15.432;2022-07-06T07:32:42;4.70;;;3.23;;
16115;SDS011;8162;47.104;15.432;2022-07-06T07:35:08;3.63;;;3.30;;
16115;SDS011;8162;47.104;15.432;2022-07-06T07:37:34;3.57;;;3.27;;
16115;SDS011;8162;47.104;15.432;2022-07-06T07:40:02;3.27;;;2.87;;
16115;SDS011;8162;47.104;15.432;2022-07-06T07:42:29;3.87;;;3.00;;
16115;SDS011;8162;47.104;15.432;2022-07-06T07:44:55;3.53;;;3.20;;
16115;SDS011;8162;47.104;15.432;2022-07-06T07:47:20;3.80;;;3.50;;
16115;SDS011;8162;47.104;15.432;2022-07-06T07:49:46;6.53;;;4.33;;
16115;SDS011;8162;47.104;15.432;2022-07-06T07:52:12;5.23;;;4.10;;
16115;SDS011;8162;47.104;15.432;2022-07-06T07:54:38;3.93;;;3.63;;
16115;SDS011;8162;47.104;15.432;2022-07-06T07:57:04;3.67;;;3.37;;
16115;SDS011;8162;47.104;15.432;2022-07-06T07:59:30;2.90;;;2.47;;
16115;SDS011;8162;47.104;15.432;2022-07-06T08:01:55;3.83;;;2.37;;
16115;SDS011;8162;47.104;15.432;2022-07-06T08:04:21;4.13;;;2.63;;
16115;SDS011;8162;47.104;15.432;2022-07-06T08:06:47;3.77;;;2.53;;
16115;SDS011;8162;47.104;15.432;2022-07-06T08:09:13;2.23;;;2.03;;
16115;SDS011;8162;47.104;15.432;2022-07-06T08:11:39;4.43;;;2.20;;
16115;SDS011;8162;47.104;15.432;2022-07-06T08:14:05;4.07;;;2.80;;
16115;SDS011;8162;47.104;15.432;2022-07-06T08:16:31;2.37;;;2.17;;
16115;SDS011;8162;47.104;15.432;2022-07-06T08:18:56;4.17;;;2.20;;
16115;SDS011;8162;47.104;15.432;2022-07-06T08:21:22;3.40;;;1.90;;
16115;SDS011;8162;47.104;15.432;2022-07-06T08:23:48;2.00;;;1.80;;
16115;SDS011;8162;47.104;15.432;2022-07-06T08:26:14;1.40;;;1.30;;
16115;SDS011;8162;47.104;15.432;2022-07-06T08:28:40;2.57;;;1.50;;
16115;SDS011;8162;47.104;15.432;2022-07-06T08:31:05;3.50;;;1.50;;
16115;SDS011;8162;47.104;15.432;2022-07-06T08:33:31;6.97;;;2.00;;
16115;SDS011;8162;47.104;15.432;2022-07-06T08:35:57;3.20;;;1.90;;
16115;SDS011;8162;47.104;15.432;2022-07-06T08:38:22;3.00;;;1.77;;
16115;SDS011;8162;47.104;15.432;2022-07-06T08:40:48;3.13;;;1.57;;
16115;SDS011;8162;47.104;15.432;2022-07-06T08:43:15;2.30;;;1.80;;
16115;SDS011;8162;47.104;15.432;2022-07-06T08:45:41;3.73;;;2.13;;
16115;SDS011;8162;47.104;15.432;2022-07-06T08:48:09;2.30;;;1.70;;
16115;SDS011;8162;47.104;15.432;2022-07-06T08:50:35;1.80;;;1.30;;
16115;SDS011;8162;47.104;15.432;2022-07-06T08:53:01;1.53;;;1.43;;
16115;SDS011;8162;47.104;15.432;2022-07-06T08:55:27;3.27;;;1.40;;
16115;SDS011;8162;47.104;15.432;2022-07-06T08:57:57;1.40;;;1.30;;
16115;SDS011;8162;47.104;15.432;2022-07-06T09:00:23;1.30;;;1.20;;
16115;SDS011;8162;47.104;15.432;2022-07-06T09:02:52;4.43;;;1.67;;
16115;SDS011;8162;47.104;15.432;2022-07-06T09:05:22;1.37;;;1.20;;
16115;SDS011;8162;47.104;15.432;2022-07-06T09:07:49;1.93;;;1.70;;
16115;SDS011;8162;47.104;15.432;2022-07-06T09:10:20;2.20;;;1.40;;
16115;SDS011;8162;47.104;15.432;2022-07-06T09:12:50;1.90;;;1.43;;
16115;SDS011;8162;47.104;15.432;2022-07-06T09:15:15;4.30;;;1.80;;
16115;SDS011;8162;47.104;15.432;2022-07-06T09:17:41;2.00;;;1.60;;
16115;SDS011;8162;47.104;15.432;2022-07-06T09:20:08;2.40;;;1.47;;
16115;SDS011;8162;47.104;15.432;2022-07-06T09:22:38;3.00;;;1.70;;
16115;SDS011;8162;47.104;15.432;2022-07-06T09:25:09;3.57;;;1.73;;
16115;SDS011;8162;47.104;15.432;2022-07-06T09:27:39;3.63;;;1.77;;
16115;SDS011;8162;47.104;15.432;2022-07-06T09:30:07;2.63;;;1.50;;
16115;SDS011;8162;47.104;15.432;2022-07-06T09:32:41;1.67;;;1.37;;
16115;SDS011;8162;47.104;15.432;2022-07-06T09:35:08;1.73;;;1.53;;
16115;SDS011;8162;47.104;15.432;2022-07-06T09:38:07;2.67;;;1.40;;
16115;SDS011;8162;47.104;15.432;2022-07-06T09:40:34;2.13;;;1.50;;
16115;SDS011;8162;47.104;15.432;2022-07-06T09:43:17;1.50;;;1.40;;
16115;SDS011;8162;47.104;15.432;2022-07-06T09:45:49;2.20;;;1.63;;
16115;SDS011;8162;47.104;15.432;2022-07-06T09:50:50;1.40;;;1.30;;
16115;SDS011;8162;47.104;15.432;2022-07-06T09:53:17;3.27;;;1.57;;
16115;SDS011;8162;47.104;15.432;2022-07-06T09:55:45;4.20;;;1.80;;
16115;SDS011;8162;47.104;15.432;2022-07-06T09:58:12;1.20;;;1.10;;
16115;SDS011;8162;47.104;15.432;2022-07-06T10:00:38;3.53;;;1.60;;
16115;SDS011;8162;47.104;15.432;2022-07-06T10:03:04;2.33;;;1.40;;
16115;SDS011;8162;47.104;15.432;2022-07-06T10:05:32;1.60;;;1.20;;
16115;SDS011;8162;47.104;15.432;2022-07-06T10:08:00;3.03;;;1.40;;
16115;SDS011;8162;47.104;15.432;2022-07-06T10:10:26;4.03;;;1.30;;
16115;SDS011;8162;47.104;15.432;2022-07-06T10:12:56;1.93;;;1.60;;
16115;SDS011;8162;47.104;15.432;2022-07-06T10:15:24;2.60;;;1.13;;
16115;SDS011;8162;47.104;15.432;2022-07-06T10:17:51;1.20;;;1.10;;
16115;SDS011;8162;47.104;15.432;2022-07-06T10:20:17;1.93;;;1.33;;
16115;SDS011;8162;47.104;15.432;2022-07-06T10:22:45;2.13;;;1.10;;
16115;SDS011;8162;47.104;15.432;2022-07-06T10:25:12;1.43;;;1.30;;
16115;SDS011;8162;47.104;15.432;2022-07-06T10:27:40;1.73;;;1.10;;
16115;SDS011;8162;47.104;15.432;2022-07-06T10:30:07;1.47;;;1.37;;
16115;SDS011;8162;47.104;15.432;2022-07-06T10:32:33;1.50;;;1.20;;
16115;SDS011;8162;47.104;15.432;2022-07-06T10:35:00;1.43;;;1.33;;
16115;SDS011;8162;47.104;15.432;2022-07-06T10:37:27;3.20;;;1.10;;
16115;SDS011;8162;47.104;15.432;2022-07-06T10:39:53;2.03;;;1.10;;
16115;SDS011;8162;47.104;15.432;2022-07-06T10:42:41;1.40;;;1.10;;
16115;SDS011;8162;47.104;15.432;2022-07-06T10:45:15;1.93;;;1.10;;
16115;SDS011;8162;47.104;15.432;2022-07-06T10:47:46;1.03;;;1.00;;
16115;SDS011;8162;47.104;15.432;2022-07-06T10:50:12;2.17;;;1.40;;
16115;SDS011;8162;47.104;15.432;2022-07-06T10:52:51;1.30;;;1.20;;
16115;SDS011;8162;47.104;15.432;2022-07-06T10:55:35;1.33;;;1.23;;
16115;SDS011;8162;47.104;15.432;2022-07-06T10:58:02;1.83;;;1.30;;
16115;SDS011;8162;47.104;15.432;2022-07-06T11:01:11;1.40;;;0.93;;
16115;SDS011;8162;47.104;15.432;2022-07-06T11:03:38;1.50;;;1.40;;
16115;SDS011;8162;47.104;15.432;2022-07-06T11:11:18;1.17;;;1.07;;
16115;SDS011;8162;47.104;15.432;2022-07-06T11:16:15;2.37;;;1.07;;
16115;SDS011;8162;47.104;15.432;2022-07-06T11:18:45;1.87;;;1.37;;
16115;SDS011;8162;47.104;15.432;2022-07-06T11:21:20;2.07;;;1.03;;
16115;SDS011;8162;47.104;15.432;2022-07-06T11:23:48;3.20;;;1.70;;
16115;SDS011;8162;47.104;15.432;2022-07-06T11:26:15;1.93;;;1.30;;
16115;SDS011;8162;47.104;15.432;2022-07-06T11:28:41;2.37;;;1.20;;
16115;SDS011;8162;47.104;15.432;2022-07-06T11:31:10;1.83;;;1.30;;
16115;SDS011;8162;47.104;15.432;2022-07-06T11:33:36;2.30;;;1.50;;
16115;SDS011;8162;47.104;15.432;2022-07-06T11:38:40;1.40;;;1.20;;
16115;SDS011;8162;47.104;15.432;2022-07-06T11:41:06;1.13;;;1.03;;
16115;SDS011;8162;47.104;15.432;2022-07-06T11:43:31;2.67;;;1.33;;
16115;SDS011;8162;47.104;15.432;2022-07-06T11:45:57;1.70;;;1.00;;
16115;SDS011;8162;47.104;15.432;2022-07-06T11:48:23;1.03;;;0.93;;
16115;SDS011;8162;47.104;15.432;2022-07-06T11:51:01;1.27;;;1.10;;
16115;SDS011;8162;47.104;15.432;2022-07-06T11:53:28;2.13;;;1.03;;
16115;SDS011;8162;47.104;15.432;2022-07-06T11:55:54;3.30;;;1.27;;
16115;SDS011;8162;47.104;15.432;2022-07-06T11:58:20;1.67;;;1.10;;
16115;SDS011;8162;47.104;15.432;2022-07-06T12:01:07;1.47;;;1.10;;
16115;SDS011;8162;47.104;15.432;2022-07-06T12:03:36;0.90;;;0.80;;
16115;SDS011;8162;47.104;15.432;2022-07-06T12:06:02;3.53;;;1.60;;
16115;SDS011;8162;47.104;15.432;2022-07-06T12:08:29;1.30;;;1.00;;
16115;SDS011;8162;47.104;15.432;2022-07-06T12:10:55;1.67;;;1.10;;
16115;SDS011;8162;47.104;15.432;2022-07-06T12:13:21;1.87;;;1.07;;
16115;SDS011;8162;47.104;15.432;2022-07-06T12:15:48;1.20;;;1.10;;
16115;SDS011;8162;47.104;15.432;2022-07-06T12:18:14;1.60;;;1.20;;
16115;SDS011;8162;47.104;15.432;2022-07-06T12:20:39;1.43;;;1.03;;
16115;SDS011;8162;47.104;15.432;2022-07-06T12:23:05;1.83;;;1.00;;
16115;SDS011;8162;47.104;15.432;2022-07-06T12:25:33;2.33;;;1.30;;
16115;SDS011;8162;47.104;15.432;2022-07-06T12:28:00;3.40;;;1.20;;
16115;SDS011;8162;47.104;15.432;2022-07-06T12:30:26;1.17;;;1.00;;
16115;SDS011;8162;47.104;15.432;2022-07-06T12:35:44;4.37;;;1.40;;
16115;SDS011;8162;47.104;15.432;2022-07-06T12:38:10;1.57;;;1.03;;
16115;SDS011;8162;47.104;15.432;2022-07-06T12:40:36;3.27;;;1.10;;
16115;SDS011;8162;47.104;15.432;2022-07-06T12:43:03;2.50;;;1.00;;
16115;SDS011;8162;47.104;15.432;2022-07-06T12:45:30;2.73;;;0.90;;
16115;SDS011;8162;47.104;15.432;2022-07-06T12:48:00;1.17;;;0.80;;
16115;SDS011;8162;47.104;15.432;2022-07-06T12:50:30;1.47;;;0.93;;
16115;SDS011;8162;47.104;15.432;2022-07-06T12:53:02;1.57;;;0.93;;
16115;SDS011;8162;47.104;15.432;2022-07-06T12:55:29;1.47;;;0.90;;
16115;SDS011;8162;47.104;15.432;2022-07-06T12:57:55;2.40;;;1.00;;
16115;SDS011;8162;47.104;15.432;2022-07-06T13:00:22;2.20;;;1.20;;
16115;SDS011;8162;47.104;15.432;2022-07-06T13:02:49;1.20;;;1.00;;
16115;SDS011;8162;47.104;15.432;2022-07-06T13:05:21;1.17;;;0.93;;
16115;SDS011;8162;47.104;15.432;2022-07-06T13:07:52;2.50;;;1.10;;
16115;SDS011;8162;47.104;15.432;2022-07-06T13:10:19;1.50;;;1.07;;
16115;SDS011;8162;47.104;15.432;2022-07-06T13:12:45;1.93;;;1.10;;
16115;SDS011;8162;47.104;15.432;2022-07-06T13:15:11;0.90;;;0.83;;
16115;SDS011;8162;47.104;15.432;2022-07-06T13:17:37;2.30;;;1.20;;
16115;SDS011;8162;47.104;15.432;2022-07-06T13:20:04;1.10;;;0.90;;
16115;SDS011;8162;47.104;15.432;2022-07-06T13:22:31;2.03;;;1.27;;
16115;SDS011;8162;47.104;15.432;2022-07-06T13:24:56;4.27;;;1.50;;
16115;SDS011;8162;47.104;15.432;2022-07-06T13:27:22;1.13;;;0.97;;
16115;SDS011;8162;47.104;15.432;2022-07-06T13:29:47;2.07;;;1.00;;
16115;SDS011;8162;47.104;15.432;2022-07-06T13:32:13;1.40;;;1.17;;
16115;SDS011;8162;47.104;15.432;2022-07-06T13:34:39;3.20;;;1.23;;
16115;SDS011;8162;47.104;15.432;2022-07-06T13:37:04;1.00;;;0.90;;
16115;SDS011;8162;47.104;15.432;2022-07-06T13:39:31;1.10;;;1.00;;
16115;SDS011;8162;47.104;15.432;2022-07-06T13:41:57;2.60;;;1.10;;
16115;SDS011;8162;47.104;15.432;2022-07-06T13:44:23;1.80;;;1.10;;
16115;SDS011;8162;47.104;15.432;2022-07-06T13:46:48;1.70;;;0.87;;
16115;SDS011;8162;47.104;15.432;2022-07-06T13:49:15;1.27;;;1.03;;
16115;SDS011;8162;47.104;15.432;2022-07-06T13:51:40;2.23;;;1.07;;
16115;SDS011;8162;47.104;15.432;2022-07-06T13:54:06;3.13;;;0.90;;
16115;SDS011;8162;47.104;15.432;2022-07-06T13:56:32;2.57;;;1.20;;
16115;SDS011;8162;47.104;15.432;2022-07-06T13:58:58;2.00;;;1.10;;
16115;SDS011;8162;47.104;15.432;2022-07-06T14:01:24;2.67;;;1.33;;
16115;SDS011;8162;47.104;15.432;2022-07-06T14:03:50;1.53;;;1.07;;
16115;SDS011;8162;47.104;15.432;2022-07-06T14:06:16;2.80;;;1.33;;
16115;SDS011;8162;47.104;15.432;2022-07-06T14:08:42;2.03;;;1.40;;
16115;SDS011;8162;47.104;15.432;2022-07-06T14:11:09;2.00;;;1.00;;
16115;SDS011;8162;47.104;15.432;2022-07-06T14:13:35;2.13;;;1.10;;
16115;SDS011;8162;47.104;15.432;2022-07-06T14:16:01;2.33;;;1.37;;
16115;SDS011;8162;47.104;15.432;2022-07-06T14:18:28;3.87;;;1.00;;
16115;SDS011;8162;47.104;15.432;2022-07-06T14:20:54;1.87;;;0.90;;
16115;SDS011;8162;47.104;15.432;2022-07-06T14:23:20;1.37;;;1.17;;
16115;SDS011;8162;47.104;15.432;2022-07-06T14:25:47;1.33;;;1.00;;
16115;SDS011;8162;47.104;15.432;2022-07-06T14:28:13;2.03;;;1.20;;
16115;SDS011;8162;47.104;15.432;2022-07-06T14:30:41;3.30;;;1.00;;
16115;SDS011;8162;47.104;15.432;2022-07-06T14:33:09;5.20;;;1.07;;
16115;SDS011;8162;47.104;15.432;2022-07-06T14:38:07;3.20;;;1.20;;
16115;SDS011;8162;47.104;15.432;2022-07-06T14:40:33;1.90;;;1.13;;
16115;SDS011;8162;47.104;15.432;2022-07-06T14:43:00;2.30;;;1.20;;
16115;SDS011;8162;47.104;15.432;2022-07-06T14:45:26;1.97;;;1.30;;
16115;SDS011;8162;47.104;15.432;2022-07-06T14:47:52;2.10;;;1.23;;
16115;SDS011;8162;47.104;15.432;2022-07-06T14:50:18;1.83;;;1.20;;
16115;SDS011;8162;47.104;15.432;2022-07-06T14:52:44;1.07;;;0.97;;
16115;SDS011;8162;47.104;15.432;2022-07-06T14:55:10;2.03;;;1.40;;
16115;SDS011;8162;47.104;15.432;2022-07-06T14:57:36;1.20;;;1.10;;
16115;SDS011;8162;47.104;15.432;2022-07-06T15:00:02;4.47;;;1.37;;
16115;SDS011;8162;47.104;15.432;2022-07-06T15:02:30;2.13;;;1.20;;
16115;SDS011;8162;47.104;15.432;2022-07-06T15:04:55;2.63;;;1.23;;